sensor_id;sensor_type;location;lat;lon;timestamp;temperature;humidity
68804;SHT31;55787;52.678;13.314;2022-12-07T00:01:38;2.48;97.52
68804;SHT31;55787;52.678;13.314;2022-12-07T00:04:06;2.50;97.16
68804;SHT31;55787;52.678;13.314;2022-12-07T00:06:35;2.51;96.99
68804;SHT31;55787;52.678;13.314;2022-12-07T00:09:05;2.34;96.67
68804;SHT31;55787;52.678;13.314;2022-12-07T00:11:32;2.47;96.58
68804;SHT31;55787;52.678;13.314;2022-12-07T00:14:02;2.45;96.39
68804;SHT31;55787;52.678;13.314;2022-12-07T00:16:31;2.41;96.80
68804;SHT31;55787;52.678;13.314;2022-12-07T00:18:59;2.30;97.35
68804;SHT31;55787;52.678;13.314;2022-12-07T00:21:28;2.23;97.44
68804;SHT31;55787;52.678;13.314;2022-12-07T00:23:56;2.19;97.42
68804;SHT31;55787;52.678;13.314;2022-12-07T00:26:28;2.21;97.30
68804;SHT31;55787;52.678;13.314;2022-12-07T00:28:57;2.27;97.17
68804;SHT31;55787;52.678;13.314;2022-12-07T00:31:27;2.11;97.13
68804;SHT31;55787;52.678;13.314;2022-12-07T00:33:54;2.09;97.37
68804;SHT31;55787;52.678;13.314;2022-12-07T00:36:23;2.20;96.90
68804;SHT31;55787;52.678;13.314;2022-12-07T00:38:53;2.19;97.15
68804;SHT31;55787;52.678;13.314;2022-12-07T00:41:22;2.09;96.80
68804;SHT31;55787;52.678;13.314;2022-12-07T00:43:49;2.06;97.15
68804;SHT31;55787;52.678;13.314;2022-12-07T00:46:17;2.09;97.17
68804;SHT31;55787;52.678;13.314;2022-12-07T00:48:45;2.02;97.20
68804;SHT31;55787;52.678;13.314;2022-12-07T00:51:14;2.02;97.29
68804;SHT31;55787;52.678;13.314;2022-12-07T00:53:41;1.92;96.51
68804;SHT31;55787;52.678;13.314;2022-12-07T00:56:09;1.72;96.54
68804;SHT31;55787;52.678;13.314;2022-12-07T00:58:37;1.65;97.06
68804;SHT31;55787;52.678;13.314;2022-12-07T01:01:05;1.59;97.51
68804;SHT31;55787;52.678;13.314;2022-12-07T01:03:32;1.45;97.29
68804;SHT31;55787;52.678;13.314;2022-12-07T01:06:00;1.49;97.78
68804;SHT31;55787;52.678;13.314;2022-12-07T01:08:28;1.48;97.95
68804;SHT31;55787;52.678;13.314;2022-12-07T01:11:00;1.54;97.34
68804;SHT31;55787;52.678;13.314;2022-12-07T01:13:28;1.54;97.26
68804;SHT31;55787;52.678;13.314;2022-12-07T01:15:57;1.52;97.76
68804;SHT31;55787;52.678;13.314;2022-12-07T01:18:27;1.52;97.06
68804;SHT31;55787;52.678;13.314;2022-12-07T01:21:11;1.52;97.67
68804;SHT31;55787;52.678;13.314;2022-12-07T01:23:39;1.56;97.87
68804;SHT31;55787;52.678;13.314;2022-12-07T01:26:09;1.59;97.58
68804;SHT31;55787;52.678;13.314;2022-12-07T01:28:36;1.56;97.46
68804;SHT31;55787;52.678;13.314;2022-12-07T01:31:08;1.56;97.88
68804;SHT31;55787;52.678;13.314;2022-12-07T01:33:39;1.59;97.83
68804;SHT31;55787;52.678;13.314;2022-12-07T01:36:15;1.55;97.48
68804;SHT31;55787;52.678;13.314;2022-12-07T01:38:43;1.56;97.63
68804;SHT31;55787;52.678;13.314;2022-12-07T01:41:11;1.49;97.34
68804;SHT31;55787;52.678;13.314;2022-12-07T01:46:37;1.55;96.58
68804;SHT31;55787;52.678;13.314;2022-12-07T01:49:06;1.51;97.07
68804;SHT31;55787;52.678;13.314;2022-12-07T01:51:37;1.40;97.04
68804;SHT31;55787;52.678;13.314;2022-12-07T01:54:04;1.41;97.34
68804;SHT31;55787;52.678;13.314;2022-12-07T01:56:31;1.41;97.28
68804;SHT31;55787;52.678;13.314;2022-12-07T01:59:00;1.34;97.12
68804;SHT31;55787;52.678;13.314;2022-12-07T02:01:27;1.37;96.71
68804;SHT31;55787;52.678;13.314;2022-12-07T02:03:53;1.28;96.89
68804;SHT31;55787;52.678;13.314;2022-12-07T02:06:23;1.26;97.25
68804;SHT31;55787;52.678;13.314;2022-12-07T02:08:51;1.20;97.51
68804;SHT31;55787;52.678;13.314;2022-12-07T02:11:18;1.21;98.12
68804;SHT31;55787;52.678;13.314;2022-12-07T02:13:46;1.27;98.03
68804;SHT31;55787;52.678;13.314;2022-12-07T02:16:37;1.26;97.77
68804;SHT31;55787;52.678;13.314;2022-12-07T02:19:18;1.20;97.75
68804;SHT31;55787;52.678;13.314;2022-12-07T02:22:00;1.16;97.98
68804;SHT31;55787;52.678;13.314;2022-12-07T02:24:53;1.08;97.62
68804;SHT31;55787;52.678;13.314;2022-12-07T02:30:27;0.99;97.69
68804;SHT31;55787;52.678;13.314;2022-12-07T02:32:59;0.96;97.70
68804;SHT31;55787;52.678;13.314;2022-12-07T02:38:38;0.96;97.67
68804;SHT31;55787;52.678;13.314;2022-12-07T02:41:11;0.96;98.19
68804;SHT31;55787;52.678;13.314;2022-12-07T02:43:43;1.03;98.36
68804;SHT31;55787;52.678;13.314;2022-12-07T02:46:18;1.05;97.79
68804;SHT31;55787;52.678;13.314;2022-12-07T02:48:47;1.05;97.46
68804;SHT31;55787;52.678;13.314;2022-12-07T02:51:14;1.01;97.63
68804;SHT31;55787;52.678;13.314;2022-12-07T02:53:43;0.99;97.68
68804;SHT31;55787;52.678;13.314;2022-12-07T03:07:05;0.89;97.88
68804;SHT31;55787;52.678;13.314;2022-12-07T03:09:36;0.83;97.89
68804;SHT31;55787;52.678;13.314;2022-12-07T03:12:14;0.84;98.57
68804;SHT31;55787;52.678;13.314;2022-12-07T03:14:52;0.86;98.60
68804;SHT31;55787;52.678;13.314;2022-12-07T03:17:28;0.84;98.50
68804;SHT31;55787;52.678;13.314;2022-12-07T03:20:00;0.84;98.64
68804;SHT31;55787;52.678;13.314;2022-12-07T03:22:31;0.91;98.35
68804;SHT31;55787;52.678;13.314;2022-12-07T03:25:02;0.91;98.25
68804;SHT31;55787;52.678;13.314;2022-12-07T03:27:41;0.94;98.52
68804;SHT31;55787;52.678;13.314;2022-12-07T03:30:17;0.90;98.46
68804;SHT31;55787;52.678;13.314;2022-12-07T03:32:49;0.94;98.58
68804;SHT31;55787;52.678;13.314;2022-12-07T03:35:22;0.97;98.63
68804;SHT31;55787;52.678;13.314;2022-12-07T03:37:56;1.04;98.45
68804;SHT31;55787;52.678;13.314;2022-12-07T03:40:37;1.01;98.69
68804;SHT31;55787;52.678;13.314;2022-12-07T03:43:06;1.03;98.67
68804;SHT31;55787;52.678;13.314;2022-12-07T03:45:42;1.01;98.68
68804;SHT31;55787;52.678;13.314;2022-12-07T03:48:22;0.99;98.76
68804;SHT31;55787;52.678;13.314;2022-12-07T03:50:57;1.04;98.69
68804;SHT31;55787;52.678;13.314;2022-12-07T03:53:34;1.03;99.05
68804;SHT31;55787;52.678;13.314;2022-12-07T03:56:03;1.08;99.46
68804;SHT31;55787;52.678;13.314;2022-12-07T03:58:30;1.08;99.23
68804;SHT31;55787;52.678;13.314;2022-12-07T04:00:57;1.10;99.20
68804;SHT31;55787;52.678;13.314;2022-12-07T04:03:24;1.13;99.15
68804;SHT31;55787;52.678;13.314;2022-12-07T04:05:50;1.14;99.39
68804;SHT31;55787;52.678;13.314;2022-12-07T04:08:17;1.16;99.26
68804;SHT31;55787;52.678;13.314;2022-12-07T04:10:44;1.20;99.15
68804;SHT31;55787;52.678;13.314;2022-12-07T04:13:11;1.13;99.63
68804;SHT31;55787;52.678;13.314;2022-12-07T04:15:37;1.16;99.95
68804;SHT31;55787;52.678;13.314;2022-12-07T04:18:04;1.21;99.78
68804;SHT31;55787;52.678;13.314;2022-12-07T04:20:31;1.28;99.16
68804;SHT31;55787;52.678;13.314;2022-12-07T04:22:57;1.20;99.60
68804;SHT31;55787;52.678;13.314;2022-12-07T04:25:24;1.23;99.71
68804;SHT31;55787;52.678;13.314;2022-12-07T04:27:51;1.26;99.72
68804;SHT31;55787;52.678;13.314;2022-12-07T04:30:18;1.31;99.92
68804;SHT31;55787;52.678;13.314;2022-12-07T04:32:44;1.28;99.80
68804;SHT31;55787;52.678;13.314;2022-12-07T04:35:11;1.28;99.99
68804;SHT31;55787;52.678;13.314;2022-12-07T04:37:38;1.28;99.99
68804;SHT31;55787;52.678;13.314;2022-12-07T04:40:07;1.32;99.99
68804;SHT31;55787;52.678;13.314;2022-12-07T04:42:37;1.37;99.99
68804;SHT31;55787;52.678;13.314;2022-12-07T04:45:04;1.40;99.99
68804;SHT31;55787;52.678;13.314;2022-12-07T04:47:31;1.34;99.99
68804;SHT31;55787;52.678;13.314;2022-12-07T04:49:57;1.37;99.99
68804;SHT31;55787;52.678;13.314;2022-12-07T04:52:24;1.42;99.99
68804;SHT31;55787;52.678;13.314;2022-12-07T04:54:51;1.45;99.99
68804;SHT31;55787;52.678;13.314;2022-12-07T04:57:17;1.47;99.99
68804;SHT31;55787;52.678;13.314;2022-12-07T04:59:44;1.51;99.99
68804;SHT31;55787;52.678;13.314;2022-12-07T05:02:11;1.55;99.99
68804;SHT31;55787;52.678;13.314;2022-12-07T05:04:38;1.55;99.99
68804;SHT31;55787;52.678;13.314;2022-12-07T05:07:05;1.59;99.99
68804;SHT31;55787;52.678;13.314;2022-12-07T05:09:31;1.66;99.99
68804;SHT31;55787;52.678;13.314;2022-12-07T05:11:58;1.70;99.99
68804;SHT31;55787;52.678;13.314;2022-12-07T05:14:25;1.70;99.99
68804;SHT31;55787;52.678;13.314;2022-12-07T05:16:52;1.75;99.99
68804;SHT31;55787;52.678;13.314;2022-12-07T05:19:19;1.75;99.99
68804;SHT31;55787;52.678;13.314;2022-12-07T05:21:47;1.78;99.99
68804;SHT31;55787;52.678;13.314;2022-12-07T05:24:14;1.80;99.99
68804;SHT31;55787;52.678;13.314;2022-12-07T05:26:42;1.87;99.99
68804;SHT31;55787;52.678;13.314;2022-12-07T05:29:14;1.89;99.99
68804;SHT31;55787;52.678;13.314;2022-12-07T05:31:41;1.90;99.99
68804;SHT31;55787;52.678;13.314;2022-12-07T05:34:08;1.90;99.99
68804;SHT31;55787;52.678;13.314;2022-12-07T05:36:35;2.02;99.99
68804;SHT31;55787;52.678;13.314;2022-12-07T05:39:03;2.00;99.99
68804;SHT31;55787;52.678;13.314;2022-12-07T05:41:29;2.05;99.99
68804;SHT31;55787;52.678;13.314;2022-12-07T05:44:14;2.11;99.99
68804;SHT31;55787;52.678;13.314;2022-12-07T05:46:41;2.10;99.99
68804;SHT31;55787;52.678;13.314;2022-12-07T05:49:07;2.11;99.99
68804;SHT31;55787;52.678;13.314;2022-12-07T05:51:34;2.19;99.99
68804;SHT31;55787;52.678;13.314;2022-12-07T05:54:01;2.17;99.99
68804;SHT31;55787;52.678;13.314;2022-12-07T05:56:27;2.31;99.99
68804;SHT31;55787;52.678;13.314;2022-12-07T05:58:54;2.30;99.99
68804;SHT31;55787;52.678;13.314;2022-12-07T06:01:40;2.29;99.99
68804;SHT31;55787;52.678;13.314;2022-12-07T06:04:07;2.33;99.99
68804;SHT31;55787;52.678;13.314;2022-12-07T06:06:34;2.42;99.99
68804;SHT31;55787;52.678;13.314;2022-12-07T06:09:01;2.42;99.99
68804;SHT31;55787;52.678;13.314;2022-12-07T06:11:28;2.41;99.99
68804;SHT31;55787;52.678;13.314;2022-12-07T06:14:13;2.47;99.99
68804;SHT31;55787;52.678;13.314;2022-12-07T06:16:40;2.48;99.99
68804;SHT31;55787;52.678;13.314;2022-12-07T06:19:07;2.50;99.99
68804;SHT31;55787;52.678;13.314;2022-12-07T06:21:34;2.51;99.92
68804;SHT31;55787;52.678;13.314;2022-12-07T06:24:00;2.48;99.99
68804;SHT31;55787;52.678;13.314;2022-12-07T06:26:27;2.58;99.99
68804;SHT31;55787;52.678;13.314;2022-12-07T06:28:54;2.60;99.79
68804;SHT31;55787;52.678;13.314;2022-12-07T06:31:20;2.55;99.99
68804;SHT31;55787;52.678;13.314;2022-12-07T06:33:47;2.57;99.99
68804;SHT31;55787;52.678;13.314;2022-12-07T06:36:14;2.55;99.99
68804;SHT31;55787;52.678;13.314;2022-12-07T06:38:40;2.61;99.92
68804;SHT31;55787;52.678;13.314;2022-12-07T06:41:07;2.57;99.86
68804;SHT31;55787;52.678;13.314;2022-12-07T06:43:33;2.54;99.99
68804;SHT31;55787;52.678;13.314;2022-12-07T06:46:00;2.64;99.84
68804;SHT31;55787;52.678;13.314;2022-12-07T06:48:27;2.66;99.60
68804;SHT31;55787;52.678;13.314;2022-12-07T06:50:54;2.64;99.71
68804;SHT31;55787;52.678;13.314;2022-12-07T06:53:22;2.61;99.81
68804;SHT31;55787;52.678;13.314;2022-12-07T06:55:48;2.64;99.99
68804;SHT31;55787;52.678;13.314;2022-12-07T06:58:16;2.65;99.99
68804;SHT31;55787;52.678;13.314;2022-12-07T07:00:43;2.64;99.99
68804;SHT31;55787;52.678;13.314;2022-12-07T07:03:11;2.62;99.99
68804;SHT31;55787;52.678;13.314;2022-12-07T07:05:38;2.66;99.99
68804;SHT31;55787;52.678;13.314;2022-12-07T07:08:04;2.74;99.77
68804;SHT31;55787;52.678;13.314;2022-12-07T07:10:48;2.89;99.47
68804;SHT31;55787;52.678;13.314;2022-12-07T07:13:15;2.78;99.55
68804;SHT31;55787;52.678;13.314;2022-12-07T07:15:42;2.74;99.99
68804;SHT31;55787;52.678;13.314;2022-12-07T07:18:09;2.82;99.69
68804;SHT31;55787;52.678;13.314;2022-12-07T07:20:36;2.79;99.50
68804;SHT31;55787;52.678;13.314;2022-12-07T07:23:03;2.79;99.34
68804;SHT31;55787;52.678;13.314;2022-12-07T07:25:30;2.74;99.72
68804;SHT31;55787;52.678;13.314;2022-12-07T07:27:57;2.77;99.95
68804;SHT31;55787;52.678;13.314;2022-12-07T07:30:24;2.82;99.70
68804;SHT31;55787;52.678;13.314;2022-12-07T07:32:51;2.87;99.20
68804;SHT31;55787;52.678;13.314;2022-12-07T07:35:22;2.84;99.82
68804;SHT31;55787;52.678;13.314;2022-12-07T07:37:48;2.92;99.39
68804;SHT31;55787;52.678;13.314;2022-12-07T07:40:15;2.87;99.15
68804;SHT31;55787;52.678;13.314;2022-12-07T07:42:42;2.93;98.93
68804;SHT31;55787;52.678;13.314;2022-12-07T07:45:09;2.98;98.87
68804;SHT31;55787;52.678;13.314;2022-12-07T07:47:35;2.98;98.60
68804;SHT31;55787;52.678;13.314;2022-12-07T07:50:02;2.98;98.24
68804;SHT31;55787;52.678;13.314;2022-12-07T07:52:30;2.99;98.13
68804;SHT31;55787;52.678;13.314;2022-12-07T07:54:57;3.06;98.05
68804;SHT31;55787;52.678;13.314;2022-12-07T07:57:24;3.06;97.76
68804;SHT31;55787;52.678;13.314;2022-12-07T07:59:51;3.12;97.39
68804;SHT31;55787;52.678;13.314;2022-12-07T08:02:18;3.10;97.45
68804;SHT31;55787;52.678;13.314;2022-12-07T08:04:46;3.12;97.43
68804;SHT31;55787;52.678;13.314;2022-12-07T08:07:14;3.13;97.25
68804;SHT31;55787;52.678;13.314;2022-12-07T08:09:41;3.03;97.48
68804;SHT31;55787;52.678;13.314;2022-12-07T08:12:08;3.15;97.40
68804;SHT31;55787;52.678;13.314;2022-12-07T08:14:34;3.15;96.66
68804;SHT31;55787;52.678;13.314;2022-12-07T08:17:01;3.24;96.87
68804;SHT31;55787;52.678;13.314;2022-12-07T08:19:28;3.33;96.52
68804;SHT31;55787;52.678;13.314;2022-12-07T08:21:55;3.44;96.51
68804;SHT31;55787;52.678;13.314;2022-12-07T08:24:23;3.44;96.28
68804;SHT31;55787;52.678;13.314;2022-12-07T08:26:51;3.40;95.76
68804;SHT31;55787;52.678;13.314;2022-12-07T08:29:17;3.33;96.04
68804;SHT31;55787;52.678;13.314;2022-12-07T08:31:44;3.36;95.59
68804;SHT31;55787;52.678;13.314;2022-12-07T08:34:12;3.33;95.57
68804;SHT31;55787;52.678;13.314;2022-12-07T08:36:39;3.43;95.56
68804;SHT31;55787;52.678;13.314;2022-12-07T08:39:06;3.33;95.59
68804;SHT31;55787;52.678;13.314;2022-12-07T08:41:52;3.40;95.37
68804;SHT31;55787;52.678;13.314;2022-12-07T08:44:19;3.39;94.88
68804;SHT31;55787;52.678;13.314;2022-12-07T08:46:53;3.43;94.76
68804;SHT31;55787;52.678;13.314;2022-12-07T08:49:25;3.57;95.26
68804;SHT31;55787;52.678;13.314;2022-12-07T08:51:54;3.46;94.29
68804;SHT31;55787;52.678;13.314;2022-12-07T08:54:21;3.53;94.59
68804;SHT31;55787;52.678;13.314;2022-12-07T08:56:49;3.47;94.03
68804;SHT31;55787;52.678;13.314;2022-12-07T08:59:24;3.44;94.32
68804;SHT31;55787;52.678;13.314;2022-12-07T09:01:51;3.47;93.70
68804;SHT31;55787;52.678;13.314;2022-12-07T09:04:18;3.44;93.20
68804;SHT31;55787;52.678;13.314;2022-12-07T09:06:44;3.34;93.65
68804;SHT31;55787;52.678;13.314;2022-12-07T09:09:13;3.34;93.37
68804;SHT31;55787;52.678;13.314;2022-12-07T09:11:40;3.37;92.18
68804;SHT31;55787;52.678;13.314;2022-12-07T09:14:08;3.36;93.21
68804;SHT31;55787;52.678;13.314;2022-12-07T09:16:34;3.49;91.82
68804;SHT31;55787;52.678;13.314;2022-12-07T09:19:01;3.78;92.43
68804;SHT31;55787;52.678;13.314;2022-12-07T09:21:28;3.67;90.84
68804;SHT31;55787;52.678;13.314;2022-12-07T09:23:54;3.61;91.56
68804;SHT31;55787;52.678;13.314;2022-12-07T09:26:21;3.56;91.20
68804;SHT31;55787;52.678;13.314;2022-12-07T09:28:48;3.32;91.32
68804;SHT31;55787;52.678;13.314;2022-12-07T09:31:15;3.44;91.76
68804;SHT31;55787;52.678;13.314;2022-12-07T09:33:56;3.44;91.13
68804;SHT31;55787;52.678;13.314;2022-12-07T09:36:24;3.43;90.64
68804;SHT31;55787;52.678;13.314;2022-12-07T09:38:51;3.49;90.96
68804;SHT31;55787;52.678;13.314;2022-12-07T09:41:18;3.37;90.43
68804;SHT31;55787;52.678;13.314;2022-12-07T09:43:45;3.40;90.85
68804;SHT31;55787;52.678;13.314;2022-12-07T09:46:15;3.32;90.59
68804;SHT31;55787;52.678;13.314;2022-12-07T09:48:43;3.32;91.49
68804;SHT31;55787;52.678;13.314;2022-12-07T09:51:16;3.30;90.44
68804;SHT31;55787;52.678;13.314;2022-12-07T09:53:49;3.26;90.55
68804;SHT31;55787;52.678;13.314;2022-12-07T09:56:18;3.33;89.79
68804;SHT31;55787;52.678;13.314;2022-12-07T09:58:46;3.41;89.78
68804;SHT31;55787;52.678;13.314;2022-12-07T10:01:21;3.36;87.94
68804;SHT31;55787;52.678;13.314;2022-12-07T10:04:21;3.39;88.61
68804;SHT31;55787;52.678;13.314;2022-12-07T10:06:49;3.50;87.48
68804;SHT31;55787;52.678;13.314;2022-12-07T10:09:20;3.59;87.20
68804;SHT31;55787;52.678;13.314;2022-12-07T10:12:00;3.59;87.52
68804;SHT31;55787;52.678;13.314;2022-12-07T10:14:29;3.39;88.39
68804;SHT31;55787;52.678;13.314;2022-12-07T10:17:29;3.27;87.93
68804;SHT31;55787;52.678;13.314;2022-12-07T10:23:05;3.15;89.40
68804;SHT31;55787;52.678;13.314;2022-12-07T10:25:34;3.16;88.81
68804;SHT31;55787;52.678;13.314;2022-12-07T10:30:52;3.57;86.55
68804;SHT31;55787;52.678;13.314;2022-12-07T10:36:16;3.50;87.60
68804;SHT31;55787;52.678;13.314;2022-12-07T10:38:46;3.44;86.10
68804;SHT31;55787;52.678;13.314;2022-12-07T10:41:13;3.36;88.07
68804;SHT31;55787;52.678;13.314;2022-12-07T10:43:47;3.44;87.16
68804;SHT31;55787;52.678;13.314;2022-12-07T10:51:46;3.74;88.18
68804;SHT31;55787;52.678;13.314;2022-12-07T10:54:25;3.77;87.89
68804;SHT31;55787;52.678;13.314;2022-12-07T11:00:07;3.71;87.39
68804;SHT31;55787;52.678;13.314;2022-12-07T11:02:49;3.54;87.33
68804;SHT31;55787;52.678;13.314;2022-12-07T11:08:47;3.78;88.34
68804;SHT31;55787;52.678;13.314;2022-12-07T11:11:33;3.82;88.49
68804;SHT31;55787;52.678;13.314;2022-12-07T11:17:05;3.73;88.13
68804;SHT31;55787;52.678;13.314;2022-12-07T11:25:25;3.88;88.35
68804;SHT31;55787;52.678;13.314;2022-12-07T11:28:20;3.60;88.46
68804;SHT31;55787;52.678;13.314;2022-12-07T11:33:46;3.57;88.16
68804;SHT31;55787;52.678;13.314;2022-12-07T11:36:21;3.54;88.07
68804;SHT31;55787;52.678;13.314;2022-12-07T11:38:59;3.54;89.31
68804;SHT31;55787;52.678;13.314;2022-12-07T11:41:38;3.63;89.59
68804;SHT31;55787;52.678;13.314;2022-12-07T11:44:07;3.53;88.73
68804;SHT31;55787;52.678;13.314;2022-12-07T11:49:32;3.81;89.40
68804;SHT31;55787;52.678;13.314;2022-12-07T11:52:05;3.84;87.90
68804;SHT31;55787;52.678;13.314;2022-12-07T11:54:40;3.99;88.55
68804;SHT31;55787;52.678;13.314;2022-12-07T12:00:18;3.88;87.67
68804;SHT31;55787;52.678;13.314;2022-12-07T12:03:11;3.78;87.77
68804;SHT31;55787;52.678;13.314;2022-12-07T12:05:39;3.84;88.50
68804;SHT31;55787;52.678;13.314;2022-12-07T12:08:16;3.97;88.33
68804;SHT31;55787;52.678;13.314;2022-12-07T12:22:22;4.26;86.77
68804;SHT31;55787;52.678;13.314;2022-12-07T12:24:51;4.26;87.62
68804;SHT31;55787;52.678;13.314;2022-12-07T12:27:27;4.06;86.27
68804;SHT31;55787;52.678;13.314;2022-12-07T12:30:23;4.18;87.18
68804;SHT31;55787;52.678;13.314;2022-12-07T12:32:51;4.02;87.89
68804;SHT31;55787;52.678;13.314;2022-12-07T12:35:29;4.05;87.99
68804;SHT31;55787;52.678;13.314;2022-12-07T12:38:49;4.16;87.74
68804;SHT31;55787;52.678;13.314;2022-12-07T12:47:02;4.02;87.93
68804;SHT31;55787;52.678;13.314;2022-12-07T12:49:38;4.05;88.11
68804;SHT31;55787;52.678;13.314;2022-12-07T12:57:35;4.09;87.91
68804;SHT31;55787;52.678;13.314;2022-12-07T13:02:55;4.11;88.36
68804;SHT31;55787;52.678;13.314;2022-12-07T13:05:25;4.03;88.27
68804;SHT31;55787;52.678;13.314;2022-12-07T13:07:58;3.90;88.11
68804;SHT31;55787;52.678;13.314;2022-12-07T13:23:33;3.51;89.88
68804;SHT31;55787;52.678;13.314;2022-12-07T13:26:13;3.46;90.36
68804;SHT31;55787;52.678;13.314;2022-12-07T13:28:47;3.41;90.18
68804;SHT31;55787;52.678;13.314;2022-12-07T13:31:30;3.37;90.57
68804;SHT31;55787;52.678;13.314;2022-12-07T13:33:58;3.37;90.78
68804;SHT31;55787;52.678;13.314;2022-12-07T13:36:33;3.49;90.37
68804;SHT31;55787;52.678;13.314;2022-12-07T13:41:43;3.44;89.83
68804;SHT31;55787;52.678;13.314;2022-12-07T13:44:15;3.41;90.10
68804;SHT31;55787;52.678;13.314;2022-12-07T13:49:30;3.37;90.22
68804;SHT31;55787;52.678;13.314;2022-12-07T13:52:20;3.43;89.73
68804;SHT31;55787;52.678;13.314;2022-12-07T13:54:54;3.41;89.15
68804;SHT31;55787;52.678;13.314;2022-12-07T13:57:22;3.40;89.57
68804;SHT31;55787;52.678;13.314;2022-12-07T13:59:50;3.29;89.26
68804;SHT31;55787;52.678;13.314;2022-12-07T14:02:20;3.26;89.25
68804;SHT31;55787;52.678;13.314;2022-12-07T14:04:49;3.23;88.94
68804;SHT31;55787;52.678;13.314;2022-12-07T14:07:28;3.20;89.29
68804;SHT31;55787;52.678;13.314;2022-12-07T14:12:22;3.27;88.43
68804;SHT31;55787;52.678;13.314;2022-12-07T14:14:49;3.24;88.83
68804;SHT31;55787;52.678;13.314;2022-12-07T14:17:21;3.23;89.24
68804;SHT31;55787;52.678;13.314;2022-12-07T14:19:56;3.22;89.47
68804;SHT31;55787;52.678;13.314;2022-12-07T14:24:50;3.15;89.41
68804;SHT31;55787;52.678;13.314;2022-12-07T14:27:22;3.13;89.41
68804;SHT31;55787;52.678;13.314;2022-12-07T14:29:51;3.18;89.78
68804;SHT31;55787;52.678;13.314;2022-12-07T14:32:24;3.12;89.66
68804;SHT31;55787;52.678;13.314;2022-12-07T14:35:11;3.15;90.64
68804;SHT31;55787;52.678;13.314;2022-12-07T14:37:40;3.23;90.52
68804;SHT31;55787;52.678;13.314;2022-12-07T14:40:07;3.24;89.87
68804;SHT31;55787;52.678;13.314;2022-12-07T14:42:34;3.16;90.38
68804;SHT31;55787;52.678;13.314;2022-12-07T14:45:01;3.15;90.47
68804;SHT31;55787;52.678;13.314;2022-12-07T14:47:28;3.15;91.09
68804;SHT31;55787;52.678;13.314;2022-12-07T14:50:19;3.06;91.53
68804;SHT31;55787;52.678;13.314;2022-12-07T14:52:53;3.01;92.59
68804;SHT31;55787;52.678;13.314;2022-12-07T14:55:41;2.96;92.80
68804;SHT31;55787;52.678;13.314;2022-12-07T14:58:15;2.91;93.15
68804;SHT31;55787;52.678;13.314;2022-12-07T15:00:43;2.87;93.26
68804;SHT31;55787;52.678;13.314;2022-12-07T15:03:10;2.75;94.04
68804;SHT31;55787;52.678;13.314;2022-12-07T15:05:37;2.70;93.82
68804;SHT31;55787;52.678;13.314;2022-12-07T15:08:04;2.57;94.76
68804;SHT31;55787;52.678;13.314;2022-12-07T15:10:33;2.52;94.79
68804;SHT31;55787;52.678;13.314;2022-12-07T15:13:01;2.55;95.23
68804;SHT31;55787;52.678;13.314;2022-12-07T15:15:48;2.65;94.98
68804;SHT31;55787;52.678;13.314;2022-12-07T15:18:16;2.66;94.67
68804;SHT31;55787;52.678;13.314;2022-12-07T15:20:43;2.74;94.02
68804;SHT31;55787;52.678;13.314;2022-12-07T15:23:11;2.82;93.43
68804;SHT31;55787;52.678;13.314;2022-12-07T15:25:42;2.95;92.57
68804;SHT31;55787;52.678;13.314;2022-12-07T15:28:08;2.89;92.52
68804;SHT31;55787;52.678;13.314;2022-12-07T15:30:39;2.96;92.44
68804;SHT31;55787;52.678;13.314;2022-12-07T15:33:06;2.95;92.82
68804;SHT31;55787;52.678;13.314;2022-12-07T15:35:32;2.89;91.98
68804;SHT31;55787;52.678;13.314;2022-12-07T15:37:59;2.91;91.25
68804;SHT31;55787;52.678;13.314;2022-12-07T15:40:25;2.84;90.42
68804;SHT31;55787;52.678;13.314;2022-12-07T15:42:53;2.91;90.42
68804;SHT31;55787;52.678;13.314;2022-12-07T15:45:20;2.89;91.52
68804;SHT31;55787;52.678;13.314;2022-12-07T15:47:46;2.91;91.92
68804;SHT31;55787;52.678;13.314;2022-12-07T15:50:33;2.89;92.00
68804;SHT31;55787;52.678;13.314;2022-12-07T15:53:01;2.61;91.12
68804;SHT31;55787;52.678;13.314;2022-12-07T15:55:27;2.24;91.93
68804;SHT31;55787;52.678;13.314;2022-12-07T15:57:54;1.87;92.82
68804;SHT31;55787;52.678;13.314;2022-12-07T16:00:21;1.66;93.86
68804;SHT31;55787;52.678;13.314;2022-12-07T16:02:48;1.56;94.50
68804;SHT31;55787;52.678;13.314;2022-12-07T16:05:14;1.51;95.02
68804;SHT31;55787;52.678;13.314;2022-12-07T16:07:41;1.37;95.35
68804;SHT31;55787;52.678;13.314;2022-12-07T16:10:08;1.44;95.39
68804;SHT31;55787;52.678;13.314;2022-12-07T16:12:35;1.32;95.89
68804;SHT31;55787;52.678;13.314;2022-12-07T16:15:02;1.27;96.02
68804;SHT31;55787;52.678;13.314;2022-12-07T16:17:29;1.20;96.28
68804;SHT31;55787;52.678;13.314;2022-12-07T16:19:56;1.20;96.74
68804;SHT31;55787;52.678;13.314;2022-12-07T16:22:23;1.17;96.86
68804;SHT31;55787;52.678;13.314;2022-12-07T16:24:50;1.08;97.03
68804;SHT31;55787;52.678;13.314;2022-12-07T16:27:16;1.03;97.31
68804;SHT31;55787;52.678;13.314;2022-12-07T16:29:43;1.01;97.51
68804;SHT31;55787;52.678;13.314;2022-12-07T16:32:10;1.00;97.85
68804;SHT31;55787;52.678;13.314;2022-12-07T16:34:36;0.99;98.08
68804;SHT31;55787;52.678;13.314;2022-12-07T16:37:03;1.01;98.53
68804;SHT31;55787;52.678;13.314;2022-12-07T16:39:32;1.08;98.72
68804;SHT31;55787;52.678;13.314;2022-12-07T16:41:59;1.20;98.41
68804;SHT31;55787;52.678;13.314;2022-12-07T16:44:27;1.11;98.18
68804;SHT31;55787;52.678;13.314;2022-12-07T16:46:54;1.11;98.24
68804;SHT31;55787;52.678;13.314;2022-12-07T16:49:21;1.14;98.58
68804;SHT31;55787;52.678;13.314;2022-12-07T16:51:50;1.11;98.27
68804;SHT31;55787;52.678;13.314;2022-12-07T16:54:37;1.01;98.83
68804;SHT31;55787;52.678;13.314;2022-12-07T16:57:04;1.03;99.02
68804;SHT31;55787;52.678;13.314;2022-12-07T16:59:31;1.01;99.09
68804;SHT31;55787;52.678;13.314;2022-12-07T17:01:58;1.10;98.85
68804;SHT31;55787;52.678;13.314;2022-12-07T17:04:24;1.08;99.02
68804;SHT31;55787;52.678;13.314;2022-12-07T17:06:51;1.13;98.41
68804;SHT31;55787;52.678;13.314;2022-12-07T17:09:17;1.08;98.87
68804;SHT31;55787;52.678;13.314;2022-12-07T17:11:47;1.01;98.57
68804;SHT31;55787;52.678;13.314;2022-12-07T17:14:13;1.05;98.76
68804;SHT31;55787;52.678;13.314;2022-12-07T17:16:58;1.04;98.83
68804;SHT31;55787;52.678;13.314;2022-12-07T17:19:26;1.10;98.43
68804;SHT31;55787;52.678;13.314;2022-12-07T17:21:53;1.13;98.23
68804;SHT31;55787;52.678;13.314;2022-12-07T17:24:19;1.14;98.35
68804;SHT31;55787;52.678;13.314;2022-12-07T17:26:46;1.10;98.32
68804;SHT31;55787;52.678;13.314;2022-12-07T17:29:14;1.10;98.19
68804;SHT31;55787;52.678;13.314;2022-12-07T17:31:41;1.05;98.35
68804;SHT31;55787;52.678;13.314;2022-12-07T17:34:16;0.94;98.38
68804;SHT31;55787;52.678;13.314;2022-12-07T17:36:43;0.99;98.30